createdAt,value
2023-04-19T00:00:51.265Z,86.67
2023-04-19T00:01:52.260Z,84.43
2023-04-19T00:02:51.383Z,86.34
2023-04-19T00:03:51.411Z,86.77
2023-04-19T00:04:51.354Z,90.61
2023-04-19T00:05:51.201Z,88.29
2023-04-19T00:06:52.210Z,88.17
2023-04-19T00:07:51.207Z,88.45
2023-04-19T00:08:52.225Z,85.50
2023-04-19T00:09:52.239Z,87.67
2023-04-19T00:10:51.252Z,86.46
2023-04-19T00:11:51.251Z,85.05
2023-04-19T00:12:52.275Z,85.76
2023-04-19T00:13:52.280Z,87.98
2023-04-19T00:14:51.316Z,86.48
2023-04-19T00:15:52.354Z,85.55
2023-04-19T00:16:52.388Z,85.05
2023-04-19T00:17:52.370Z,87.85
2023-04-19T00:18:52.374Z,85.82
2023-04-19T00:19:51.405Z,85.72
2023-04-19T00:20:52.402Z,86.94
2023-04-19T00:21:51.408Z,85.61
2023-04-19T00:22:51.423Z,86.47
2023-04-19T00:23:52.451Z,83.29
2023-04-19T00:24:52.464Z,85.78
2023-04-19T00:25:52.482Z,86.03
2023-04-19T00:26:52.476Z,84.32
2023-04-19T00:27:52.490Z,84.30
2023-04-19T00:28:52.504Z,84.41
2023-04-19T00:29:52.516Z,87.02
2023-04-19T00:30:52.614Z,84.44
2023-04-19T00:31:52.550Z,83.58
2023-04-19T00:32:52.681Z,85.97
2023-04-19T00:33:52.583Z,83.48
2023-04-19T00:34:52.609Z,84.48
2023-04-19T00:35:51.619Z,86.59
2023-04-19T00:36:52.609Z,88.41
2023-04-19T00:37:51.613Z,86.34
2023-04-19T00:38:52.661Z,84.52
2023-04-19T00:39:52.666Z,88.43
2023-04-19T00:40:51.638Z,85.20
2023-04-19T00:41:52.703Z,86.50
2023-04-19T00:42:52.701Z,82.16
2023-04-19T00:43:52.696Z,82.68
2023-04-19T00:44:51.718Z,85.58
2023-04-19T00:45:52.839Z,84.28
2023-04-19T00:46:52.734Z,84.04
2023-04-19T00:47:52.754Z,85.41
2023-04-19T00:48:52.759Z,81.45
2023-04-19T00:49:52.764Z,82.29
2023-04-19T00:50:52.770Z,83.00
2023-04-19T00:51:52.763Z,84.06
2023-04-19T00:52:52.770Z,85.05
2023-04-19T00:53:52.768Z,85.48
2023-04-19T00:54:52.806Z,85.24
2023-04-19T00:55:52.783Z,85.75
2023-04-19T00:56:52.794Z,86.27
2023-04-19T00:57:52.801Z,87.65
2023-04-19T00:58:52.796Z,86.02
2023-04-19T00:59:52.837Z,84.21
2023-04-19T01:00:52.823Z,83.28
2023-04-19T01:01:52.921Z,87.05
2023-04-19T01:02:52.979Z,88.57
2023-04-19T01:03:52.995Z,85.10
2023-04-19T01:04:53.034Z,84.42
2023-04-19T01:05:52.889Z,86.11
2023-04-19T01:06:51.913Z,82.54
2023-04-19T01:07:51.926Z,82.58
2023-04-19T01:08:52.915Z,81.27
2023-04-19T01:09:52.962Z,81.00
2023-04-19T01:10:52.962Z,81.49
2023-04-19T01:11:52.960Z,79.02
2023-04-19T01:12:51.988Z,83.48
2023-04-19T01:13:53.006Z,83.95
2023-04-19T01:14:53.039Z,82.87
2023-04-19T01:15:52.106Z,86.09
2023-04-19T01:16:53.047Z,86.52
2023-04-19T01:17:53.156Z,86.42
2023-04-19T01:18:53.074Z,81.31
2023-04-19T01:19:52.103Z,83.46
2023-04-19T01:20:52.184Z,87.23
2023-04-19T01:21:53.150Z,83.74
2023-04-19T01:22:52.160Z,84.00
2023-04-19T01:23:52.168Z,83.81
2023-04-19T01:24:53.222Z,82.77
2023-04-19T01:25:53.239Z,81.33
2023-04-19T01:26:53.262Z,84.20
2023-04-19T01:27:53.272Z,84.20
2023-04-19T01:28:53.291Z,84.76
2023-04-19T01:29:53.293Z,81.86
2023-04-19T01:30:52.365Z,82.05
2023-04-19T01:31:53.347Z,84.36
2023-04-19T01:32:52.388Z,83.49
2023-04-19T01:33:53.381Z,84.14
2023-04-19T01:34:53.401Z,81.51
2023-04-19T01:35:52.712Z,83.21
2023-04-19T01:36:53.479Z,85.90
2023-04-19T01:37:53.481Z,81.61
2023-04-19T01:38:53.506Z,83.49
2023-04-19T01:39:53.540Z,81.03
2023-04-19T01:40:53.571Z,84.23
2023-04-19T01:41:52.584Z,80.35
2023-04-19T01:42:52.640Z,79.17
2023-04-19T01:43:52.632Z,82.40
2023-04-19T01:44:53.657Z,86.95
2023-04-19T01:45:52.695Z,84.99
2023-04-19T01:46:52.806Z,85.07
2023-04-19T01:47:53.791Z,84.26
2023-04-19T01:48:53.779Z,83.15
2023-04-19T01:49:53.796Z,82.17
2023-04-19T01:50:53.834Z,82.87
2023-04-19T01:51:53.855Z,84.28
2023-04-19T01:52:53.909Z,82.72
2023-04-19T01:53:53.912Z,78.59
2023-04-19T01:54:52.950Z,75.94
2023-04-19T01:55:52.973Z,80.10
2023-04-19T01:56:54.004Z,79.94
2023-04-19T01:57:54.767Z,79.94
2023-04-19T01:58:54.076Z,76.47
2023-04-19T01:59:53.120Z,77.77
2023-04-19T02:00:54.161Z,78.13
2023-04-19T02:01:54.224Z,78.31
2023-04-19T02:02:53.387Z,80.40
2023-04-19T02:03:54.385Z,78.38
2023-04-19T02:04:54.264Z,79.41
2023-04-19T02:05:53.279Z,77.98
2023-04-19T02:06:53.344Z,79.09
2023-04-19T02:07:53.343Z,78.68
2023-04-19T02:08:54.423Z,76.56
2023-04-19T02:09:54.417Z,76.23
2023-04-19T02:10:54.453Z,80.15
2023-04-19T02:11:53.469Z,77.15
2023-04-19T02:12:54.504Z,77.52
2023-04-19T02:13:54.518Z,77.85
2023-04-19T02:14:54.547Z,77.55
2023-04-19T02:15:54.647Z,80.49
2023-04-19T02:16:54.671Z,77.83
2023-04-19T02:17:53.712Z,82.16
2023-04-19T02:18:54.688Z,83.03
2023-04-19T02:19:54.733Z,84.27
2023-04-19T02:20:54.824Z,81.04
2023-04-19T02:21:54.809Z,79.47
2023-04-19T02:22:53.853Z,78.18
2023-04-19T02:23:54.897Z,77.85
2023-04-19T02:24:54.975Z,80.11
2023-04-19T02:25:54.972Z,77.51
2023-04-19T02:26:53.980Z,77.42
2023-04-19T02:27:54.026Z,78.93
2023-04-19T02:28:55.087Z,78.32
2023-04-19T02:29:55.088Z,80.40
2023-04-19T02:30:55.137Z,81.21
2023-04-19T02:31:54.241Z,80.33
2023-04-19T02:32:55.315Z,79.24
2023-04-19T02:33:55.227Z,76.77
2023-04-19T02:34:55.280Z,77.52
2023-04-19T02:35:55.270Z,76.45
2023-04-19T02:36:55.288Z,74.33
2023-04-19T02:37:54.313Z,78.39
2023-04-19T02:38:54.359Z,77.82
2023-04-19T02:39:55.404Z,78.48
2023-04-19T02:40:54.452Z,84.32
2023-04-19T02:41:55.442Z,80.86
2023-04-19T02:42:55.450Z,79.98
2023-04-19T02:43:55.467Z,78.91
2023-04-19T02:44:55.493Z,78.16
2023-04-19T02:45:55.525Z,78.62
2023-04-19T02:46:55.551Z,80.32
2023-04-19T02:47:54.575Z,82.87
2023-04-19T02:48:55.560Z,87.95
2023-04-19T02:49:55.601Z,85.53
2023-04-19T02:50:54.610Z,85.63
2023-04-19T02:51:55.596Z,89.12
2023-04-19T02:52:55.614Z,90.17
2023-04-19T02:53:54.614Z,94.60
2023-04-19T02:54:54.632Z,91.94
2023-04-19T02:55:55.630Z,94.23
2023-04-19T02:56:54.631Z,95.24
2023-04-19T02:57:54.608Z,90.26
2023-04-19T02:58:54.616Z,96.15
2023-04-19T02:59:54.620Z,98.93
2023-04-19T03:00:54.680Z,89.92
2023-04-19T03:01:55.766Z,90.84
2023-04-19T03:02:55.781Z,93.62
2023-04-19T03:03:55.807Z,91.80
2023-04-19T03:04:55.646Z,90.47
2023-04-19T03:05:54.678Z,89.46
2023-04-19T03:06:55.704Z,86.57
2023-04-19T03:08:08.430Z,89.61
2023-04-19T03:08:55.716Z,89.76
2023-04-19T03:09:58.747Z,87.72
2023-04-19T03:10:55.731Z,89.66
2023-04-19T03:12:04.248Z,83.02
2023-04-19T03:12:55.694Z,88.84
2023-04-19T03:13:55.687Z,78.59
2023-04-19T03:14:54.673Z,73.04
2023-04-19T03:15:54.699Z,72.42
2023-04-19T03:17:08.323Z,68.85
2023-04-19T03:17:55.720Z,81.67
2023-04-19T03:18:54.661Z,75.28
2023-04-19T03:19:55.793Z,72.35
2023-04-19T03:20:54.633Z,70.77
2023-04-19T03:21:54.622Z,66.65
2023-04-19T03:22:54.609Z,66.94
2023-04-19T03:23:55.636Z,65.96
2023-04-19T03:24:55.591Z,64.69
2023-04-19T03:25:55.597Z,64.04
2023-04-19T03:26:54.581Z,63.59
2023-04-19T03:27:55.614Z,61.56
2023-04-19T03:28:55.562Z,58.00
2023-04-19T03:29:54.559Z,57.83
2023-04-19T03:30:55.567Z,61.06
2023-04-19T03:31:54.561Z,60.06
2023-04-19T03:32:54.609Z,58.96
2023-04-19T03:33:55.538Z,58.15
2023-04-19T03:34:55.552Z,59.93
2023-04-19T03:35:55.546Z,57.22
2023-04-19T03:36:55.533Z,56.29
2023-04-19T03:37:55.499Z,56.13
2023-04-19T03:38:55.508Z,56.11
2023-04-19T03:39:54.493Z,55.47
2023-04-19T03:40:55.641Z,56.65
2023-04-19T03:41:55.540Z,53.16
2023-04-19T03:42:55.560Z,54.81
2023-04-19T03:43:55.634Z,55.15
2023-04-19T03:44:54.643Z,52.95
2023-04-19T03:45:55.698Z,49.82
2023-04-19T03:46:54.739Z,48.77
2023-04-19T03:47:54.854Z,51.05
2023-04-19T03:48:55.805Z,51.48
2023-04-19T03:49:54.851Z,49.38
2023-04-19T03:50:54.883Z,48.67
2023-04-19T03:51:55.940Z,46.57
2023-04-19T03:52:55.970Z,53.44
2023-04-19T03:53:55.026Z,53.34
2023-04-19T03:54:56.060Z,48.28
2023-04-19T03:55:55.085Z,53.83
2023-04-19T03:56:56.150Z,50.99
2023-04-19T03:57:55.182Z,51.27
2023-04-19T03:58:55.221Z,54.62
2023-04-19T03:59:55.285Z,51.09
2023-04-19T04:00:56.299Z,53.15
2023-04-19T04:01:56.017Z,54.57
2023-04-19T04:02:55.592Z,56.44
2023-04-19T04:03:56.534Z,52.64
2023-04-19T04:04:55.530Z,57.01
2023-04-19T04:05:56.494Z,53.37
2023-04-19T04:06:56.544Z,57.72
2023-04-19T04:07:56.599Z,50.10
2023-04-19T04:08:56.605Z,53.60
2023-04-19T04:09:56.652Z,51.42
2023-04-19T04:10:56.728Z,52.96
2023-04-19T04:11:56.734Z,56.83
2023-04-19T04:12:55.759Z,65.48
2023-04-19T04:13:56.828Z,63.74
2023-04-19T04:14:56.893Z,61.00
2023-04-19T04:15:56.927Z,66.43
2023-04-19T04:16:55.938Z,73.96
2023-04-19T04:17:56.025Z,74.46
2023-04-19T04:18:57.029Z,73.89
2023-04-19T04:19:57.076Z,74.49
2023-04-19T04:20:56.102Z,73.41
2023-04-19T04:21:56.133Z,65.12
2023-04-19T04:22:57.186Z,68.42
2023-04-19T04:23:56.228Z,63.30
2023-04-19T04:24:57.271Z,70.29
2023-04-19T04:25:57.327Z,74.04
2023-04-19T04:26:57.384Z,72.92
2023-04-19T04:27:57.424Z,75.18
2023-04-19T04:28:56.482Z,75.06
2023-04-19T04:29:57.539Z,76.25
2023-04-19T04:30:57.595Z,76.86
2023-04-19T04:31:56.689Z,82.65
2023-04-19T04:32:57.710Z,82.16
2023-04-19T04:33:57.706Z,86.00
2023-04-19T04:34:57.770Z,85.92
2023-04-19T04:35:57.817Z,88.73
2023-04-19T04:36:57.872Z,87.35
2023-04-19T04:37:57.919Z,87.04
2023-04-19T04:38:57.965Z,88.02
2023-04-19T04:39:57.046Z,85.09
2023-04-19T04:40:58.059Z,76.72
2023-04-19T04:41:58.108Z,72.61
2023-04-19T04:42:58.155Z,73.47
2023-04-19T04:44:11.487Z,69.42
2023-04-19T04:44:58.210Z,69.62
2023-04-19T04:45:58.530Z,69.47
2023-04-19T04:46:57.210Z,66.47
2023-04-19T04:47:57.280Z,64.83
2023-04-19T04:48:58.164Z,61.05
2023-04-19T04:49:57.165Z,57.85
2023-04-19T04:50:57.160Z,56.83
2023-04-19T04:51:58.131Z,57.86
2023-04-19T04:52:58.120Z,59.20
2023-04-19T04:53:58.179Z,57.81
2023-04-19T04:54:58.125Z,52.85
2023-04-19T04:55:57.115Z,54.87
2023-04-19T04:56:57.315Z,48.98
2023-04-19T04:57:58.093Z,49.91
2023-04-19T04:58:58.073Z,50.10
2023-04-19T04:59:57.070Z,49.84
2023-04-19T05:00:58.114Z,49.44
2023-04-19T05:01:57.117Z,51.31
2023-04-19T05:02:57.212Z,49.28
2023-04-19T05:03:58.084Z,47.80
2023-04-19T05:04:58.032Z,44.45
2023-04-19T05:05:57.034Z,46.96
2023-04-19T05:06:57.035Z,47.63
2023-04-19T05:07:58.056Z,48.60
2023-04-19T05:08:57.018Z,51.68
2023-04-19T05:09:57.575Z,47.23
2023-04-19T05:10:57.036Z,48.53
2023-04-19T05:11:58.043Z,50.57
2023-04-19T05:12:57.090Z,49.69
2023-04-19T05:13:58.104Z,45.90
2023-04-19T05:14:58.137Z,47.56
2023-04-19T05:15:58.190Z,44.69
2023-04-19T05:16:58.192Z,48.11
2023-04-19T05:17:58.257Z,48.95
2023-04-19T05:18:57.312Z,48.28
2023-04-19T05:19:58.297Z,53.36
2023-04-19T05:20:57.391Z,53.46
2023-04-19T05:21:57.369Z,57.63
2023-04-19T05:22:58.410Z,51.44
2023-04-19T05:23:57.467Z,54.22
2023-04-19T05:24:58.453Z,53.33
2023-04-19T05:25:57.502Z,53.67
2023-04-19T05:26:58.526Z,47.00
2023-04-19T05:27:58.597Z,46.34
2023-04-19T05:28:57.595Z,58.41
2023-04-19T05:29:57.609Z,65.09
2023-04-19T05:30:57.689Z,62.52
2023-04-19T05:31:57.691Z,56.76
2023-04-19T05:32:57.760Z,50.57
2023-04-19T05:33:58.762Z,51.10
2023-04-19T05:34:57.826Z,54.04
2023-04-19T05:35:58.831Z,50.96
2023-04-19T05:36:57.870Z,51.57
2023-04-19T05:37:58.894Z,46.13
2023-04-19T05:38:58.923Z,45.63
2023-04-19T05:39:58.941Z,46.87
2023-04-19T05:40:58.973Z,45.03
2023-04-19T05:41:57.987Z,47.68
2023-04-19T05:42:59.020Z,50.16
2023-04-19T05:43:58.034Z,57.31
2023-04-19T05:44:58.081Z,53.10
2023-04-19T05:45:58.105Z,61.83
2023-04-19T05:46:59.108Z,63.28
2023-04-19T05:47:58.214Z,70.33
2023-04-19T05:48:58.148Z,64.19
2023-04-19T05:49:59.246Z,61.77
2023-04-19T05:50:59.189Z,60.68
2023-04-19T05:51:58.201Z,62.45
2023-04-19T05:52:58.289Z,65.84
2023-04-19T05:53:59.301Z,66.61
2023-04-19T05:54:58.242Z,68.97
2023-04-19T05:55:59.236Z,70.00
2023-04-19T05:56:59.228Z,71.55
2023-04-19T05:57:59.284Z,60.21
2023-04-19T05:58:59.277Z,71.53
2023-04-19T06:00:58.313Z,83.34
2023-04-19T06:01:59.374Z,79.69
2023-04-19T06:02:58.483Z,94.66
2023-04-19T06:03:59.395Z,95.38
2023-04-19T06:05:02.492Z,104.29
2023-04-19T06:05:59.333Z,104.64
2023-04-19T06:06:58.247Z,105.78
2023-04-19T06:08:58.327Z,113.33
2023-04-19T06:09:59.311Z,123.21
2023-04-19T06:11:02.632Z,122.62
2023-04-19T06:11:59.212Z,123.31
2023-04-19T06:12:59.362Z,125.81
2023-04-19T06:13:58.180Z,130.66
2023-04-19T06:14:58.184Z,143.36
2023-04-19T06:15:59.241Z,158.33
2023-04-19T06:16:58.177Z,163.62
2023-04-19T06:17:59.821Z,167.18
2023-04-19T06:18:59.166Z,171.14
2023-04-19T06:19:58.145Z,175.30
2023-04-19T06:20:58.198Z,181.01
2023-04-19T06:21:59.247Z,182.87
2023-04-19T06:22:58.137Z,186.37
2023-04-19T06:23:58.124Z,187.40
2023-04-19T06:24:59.101Z,194.45
2023-04-19T06:25:58.100Z,199.38
2023-04-19T06:26:59.120Z,203.24
2023-04-19T06:27:58.088Z,210.74
2023-04-19T06:28:59.080Z,213.38
2023-04-19T06:29:59.080Z,213.54
2023-04-19T06:30:58.086Z,214.90
2023-04-19T06:31:59.163Z,222.10
2023-04-19T06:32:59.088Z,225.61
2023-04-19T06:33:59.036Z,228.38
2023-04-19T06:34:58.071Z,230.23
2023-04-19T06:35:58.113Z,238.32
2023-04-19T06:36:59.178Z,238.26
2023-04-19T06:37:58.040Z,242.99
2023-04-19T06:38:59.039Z,245.83
2023-04-19T06:39:59.008Z,246.88
2023-04-19T06:40:59.009Z,250.00
2023-04-19T06:41:59.006Z,250.37
2023-04-19T06:42:59.039Z,246.79
2023-04-19T06:43:58.018Z,250.00
2023-04-19T06:44:58.025Z,247.85
2023-04-19T06:45:59.120Z,247.63
2023-04-19T06:46:58.080Z,248.67
2023-04-19T06:47:59.158Z,246.10
2023-04-19T06:48:59.121Z,250.00
2023-04-19T06:49:59.319Z,248.84
2023-04-19T06:50:59.139Z,250.00
2023-04-19T06:51:58.107Z,250.00
2023-04-19T06:52:58.321Z,246.65
2023-04-19T06:53:59.174Z,248.69
2023-04-19T06:54:59.135Z,250.16
2023-04-19T06:55:58.155Z,247.58
2023-04-19T06:56:59.168Z,243.51
2023-04-19T06:57:59.309Z,249.07
2023-04-19T06:58:58.236Z,248.94
2023-04-19T06:59:59.204Z,249.78
2023-04-19T07:00:58.276Z,247.42
2023-04-19T07:01:59.270Z,246.44
2023-04-19T07:02:58.308Z,245.22
2023-04-19T07:03:58.453Z,244.59
2023-04-19T07:04:59.222Z,243.28
2023-04-19T07:05:59.298Z,243.70
2023-04-19T07:06:58.259Z,236.61
2023-04-19T07:07:59.325Z,232.40
2023-04-19T07:08:59.337Z,233.10
2023-04-19T07:09:59.639Z,227.53
2023-04-19T07:10:59.370Z,223.35
2023-04-19T07:11:59.644Z,221.74
2023-04-19T07:12:59.576Z,217.06
2023-04-19T07:13:59.471Z,209.77
2023-04-19T07:14:58.798Z,198.25
2023-04-19T07:15:58.709Z,201.25
2023-04-19T07:16:59.582Z,198.82
2023-04-19T07:17:58.699Z,200.34
2023-04-19T07:18:58.594Z,201.60
2023-04-19T07:19:59.545Z,198.75
2023-04-19T07:20:59.558Z,196.56
2023-04-19T07:21:58.540Z,200.01
2023-04-19T07:22:59.557Z,203.50
2023-04-19T07:23:59.568Z,198.75
2023-04-19T07:24:59.554Z,204.56
2023-04-19T07:25:58.617Z,204.25
2023-04-19T07:26:59.592Z,204.46
2023-04-19T07:27:59.642Z,205.10
2023-04-19T07:28:59.715Z,207.10
2023-04-19T07:29:59.765Z,209.71
2023-04-19T07:30:59.790Z,210.57
2023-04-19T07:31:59.864Z,211.51
2023-04-19T07:32:59.890Z,216.51
2023-04-19T07:33:59.943Z,219.36
2023-04-19T07:34:59.966Z,222.14
2023-04-19T07:35:59.075Z,225.80
2023-04-19T07:37:00.074Z,229.41
2023-04-19T07:37:59.151Z,230.86
2023-04-19T07:38:59.179Z,235.81
2023-04-19T07:40:00.292Z,234.49
2023-04-19T07:40:59.346Z,235.29
2023-04-19T07:41:59.520Z,237.32
2023-04-19T07:43:00.431Z,242.00
2023-04-19T07:44:00.502Z,250.00
2023-04-19T07:45:00.532Z,246.98
2023-04-19T07:46:00.594Z,250.00
2023-04-19T07:47:00.738Z,250.00
2023-04-19T07:48:00.847Z,247.76
2023-04-19T07:48:59.712Z,248.33
2023-04-19T07:50:00.761Z,247.95
2023-04-19T07:51:00.876Z,250.00
2023-04-19T07:52:00.843Z,248.82
2023-04-19T07:53:00.876Z,248.23
2023-04-19T07:54:00.816Z,247.61
2023-04-19T07:55:00.835Z,247.38
2023-04-19T07:55:59.870Z,249.90
2023-04-19T07:57:00.873Z,248.86
2023-04-19T07:58:01.062Z,247.42
2023-04-19T07:59:07.631Z,248.39
2023-04-19T08:00:00.914Z,248.49
2023-04-19T08:01:01.041Z,248.83
2023-04-19T08:02:00.029Z,249.14
2023-04-19T08:03:01.065Z,249.35
2023-04-19T08:04:00.181Z,251.18
2023-04-19T08:05:01.001Z,248.17
2023-04-19T08:05:59.881Z,246.74
2023-04-19T08:06:59.923Z,248.67
2023-04-19T08:07:59.853Z,247.56
2023-04-19T08:09:00.858Z,248.39
2023-04-19T08:10:01.037Z,246.34
2023-04-19T08:11:01.969Z,245.32
2023-04-19T08:11:59.871Z,247.31
2023-04-19T08:13:05.856Z,243.81
2023-04-19T08:14:26.829Z,244.02
2023-04-19T08:15:07.916Z,244.11
2023-04-19T08:16:20.434Z,244.37
2023-04-19T08:17:59.897Z,244.41
2023-04-19T08:18:59.870Z,245.14
2023-04-19T08:19:59.850Z,245.57
2023-04-19T08:20:59.853Z,246.24
2023-04-19T08:22:00.861Z,245.81
2023-04-19T08:23:10.498Z,243.92
2023-04-19T08:24:00.870Z,244.10
2023-04-19T08:24:59.827Z,244.60
2023-04-19T08:26:00.834Z,244.44
2023-04-19T08:27:00.228Z,242.44
2023-04-19T08:28:00.816Z,243.19
2023-04-19T08:29:00.787Z,240.22
2023-04-19T08:29:59.829Z,239.28
2023-04-19T08:31:00.781Z,237.65
2023-04-19T08:31:59.888Z,239.52
2023-04-19T08:32:59.886Z,237.70
2023-04-19T08:34:00.775Z,238.88
2023-04-19T08:35:00.756Z,234.45
2023-04-19T08:36:00.783Z,233.04
2023-04-19T08:37:04.449Z,233.92
2023-04-19T08:38:02.054Z,234.14
2023-04-19T08:39:05.722Z,234.64
2023-04-19T08:40:00.729Z,234.26
2023-04-19T08:40:59.702Z,234.81
2023-04-19T08:42:06.801Z,234.44
2023-04-19T08:43:00.886Z,234.17
2023-04-19T08:43:59.696Z,235.07
2023-04-19T08:46:00.829Z,234.19
2023-04-19T08:47:00.658Z,234.35
2023-04-19T08:48:01.844Z,234.29
2023-04-19T08:49:00.888Z,234.18
2023-04-19T08:50:11.045Z,230.83
2023-04-19T08:51:05.427Z,234.03
2023-04-19T08:52:01.145Z,234.12
2023-04-19T08:53:08.507Z,234.13
2023-04-19T08:54:00.882Z,234.10
2023-04-19T08:54:59.875Z,234.41
2023-04-19T08:56:10.495Z,233.38
2023-04-19T08:57:00.889Z,234.02
2023-04-19T08:58:00.882Z,233.67
2023-04-19T08:59:11.518Z,231.09
2023-04-19T09:00:00.825Z,234.02
2023-04-19T09:01:00.865Z,233.40
2023-04-19T09:01:59.969Z,229.09
2023-04-19T09:03:01.066Z,227.45
2023-04-19T09:04:07.267Z,226.71
2023-04-19T09:05:01.057Z,232.39
2023-04-19T09:06:00.855Z,233.00
2023-04-19T09:07:00.754Z,229.91
2023-04-19T09:08:00.791Z,227.44
2023-04-19T09:09:00.770Z,224.41
2023-04-19T09:10:03.225Z,223.75
2023-04-19T09:11:00.750Z,223.88
2023-04-19T09:12:00.790Z,223.84
2023-04-19T09:13:00.730Z,222.87
2023-04-19T09:13:59.707Z,223.11
2023-04-19T09:15:02.334Z,222.48
2023-04-19T09:16:00.927Z,223.76
2023-04-19T09:17:00.735Z,223.98
2023-04-19T09:18:00.821Z,224.22
2023-04-19T09:19:08.599Z,224.66
2023-04-19T09:20:00.696Z,223.86
2023-04-19T09:21:00.710Z,221.23
2023-04-19T09:21:59.662Z,223.76
2023-04-19T09:23:00.664Z,222.57
2023-04-19T09:24:02.420Z,219.74
2023-04-19T09:27:00.617Z,223.98
2023-04-19T09:28:00.661Z,223.86
2023-04-19T09:28:59.605Z,222.73
2023-04-19T09:29:59.596Z,221.96
2023-04-19T09:31:15.148Z,217.32
2023-04-19T09:32:00.676Z,219.58
2023-04-19T09:33:00.618Z,213.27
2023-04-19T09:34:00.660Z,212.87
2023-04-19T09:34:59.745Z,205.90
2023-04-19T09:35:59.589Z,198.58
2023-04-19T09:37:11.723Z,193.60
2023-04-19T09:38:05.833Z,193.79
2023-04-19T09:39:00.538Z,193.79
2023-04-19T09:40:00.520Z,193.81
2023-04-19T09:41:00.551Z,186.78
2023-04-19T09:42:00.507Z,185.76
2023-04-19T09:43:12.887Z,177.60
2023-04-19T09:44:15.557Z,183.87
2023-04-19T09:45:25.425Z,168.97
2023-04-19T09:46:00.559Z,160.10
2023-04-19T09:47:00.506Z,157.84
2023-04-19T09:48:00.965Z,152.19
2023-04-19T09:49:04.049Z,147.20
2023-04-19T09:50:00.698Z,152.24
2023-04-19T09:51:04.609Z,138.59
2023-04-19T09:52:00.437Z,143.49
2023-04-19T09:53:01.484Z,145.31
2023-04-19T09:54:00.420Z,140.10
2023-04-19T09:54:59.426Z,142.93
2023-04-19T09:56:02.754Z,137.44
2023-04-19T09:57:01.619Z,139.21
2023-04-19T09:58:00.421Z,141.09
2023-04-19T09:59:11.956Z,139.78
2023-04-19T10:00:00.384Z,143.74
2023-04-19T10:01:13.241Z,139.74
2023-04-19T10:02:00.462Z,146.54
2023-04-19T10:02:59.388Z,133.73
2023-04-19T10:04:14.455Z,125.12
2023-04-19T10:06:06.752Z,132.37
2023-04-19T10:08:01.418Z,133.40
2023-04-19T10:08:59.305Z,126.37
2023-04-19T10:10:11.589Z,122.59
2023-04-19T10:11:00.298Z,128.90
2023-04-19T10:12:06.553Z,120.73
2023-04-19T10:14:00.274Z,133.76
2023-04-19T10:14:59.288Z,125.53
2023-04-19T10:16:04.814Z,120.75
2023-04-19T10:17:00.340Z,121.59
2023-04-19T10:18:00.260Z,119.73
2023-04-19T10:19:00.240Z,117.44
2023-04-19T10:20:00.259Z,116.81
2023-04-19T10:21:00.259Z,121.55
2023-04-19T10:21:59.310Z,117.57
2023-04-19T10:22:59.194Z,114.90
2023-04-19T10:23:59.206Z,103.50
2023-04-19T10:24:59.185Z,103.35
2023-04-19T10:26:00.214Z,103.07
2023-04-19T10:27:00.183Z,105.05
2023-04-19T10:27:59.248Z,109.99
2023-04-19T10:28:59.312Z,104.34
2023-04-19T10:30:00.337Z,99.85
2023-04-19T10:31:00.382Z,83.46
2023-04-19T10:31:59.482Z,87.17
2023-04-19T10:33:00.577Z,90.85
2023-04-19T10:33:59.557Z,87.31
2023-04-19T10:35:00.610Z,90.52
2023-04-19T10:36:00.650Z,88.32
2023-04-19T10:37:00.695Z,87.60
2023-04-19T10:37:59.900Z,82.39
2023-04-19T10:38:59.780Z,79.34
2023-04-19T10:40:00.830Z,77.58
2023-04-19T10:40:59.878Z,76.60
2023-04-19T10:41:59.925Z,66.90
2023-04-19T10:42:59.948Z,76.09
2023-04-19T10:44:00.398Z,73.32
2023-04-19T10:45:00.989Z,68.83
2023-04-19T10:46:01.053Z,54.46
2023-04-19T10:47:00.029Z,59.21
2023-04-19T10:48:00.095Z,61.38
2023-04-19T10:49:01.049Z,65.25
2023-04-19T10:50:01.084Z,68.85
2023-04-19T10:51:01.168Z,74.30
2023-04-19T10:52:01.231Z,75.27
2023-04-19T10:53:00.285Z,83.89
2023-04-19T10:54:00.538Z,88.39
2023-04-19T10:55:00.328Z,84.52
2023-04-19T10:56:01.371Z,81.63
2023-04-19T10:57:00.439Z,87.43
2023-04-19T10:58:00.426Z,88.49
2023-04-19T10:59:01.932Z,91.69
2023-04-19T11:00:00.503Z,97.66
2023-04-19T11:01:01.566Z,98.66
2023-04-19T11:02:00.621Z,104.82
2023-04-19T11:03:00.698Z,116.24
2023-04-19T11:04:00.681Z,113.60
2023-04-19T11:05:00.608Z,107.85
2023-04-19T11:06:01.569Z,111.44
2023-04-19T11:07:00.523Z,114.85
2023-04-19T11:08:01.564Z,115.23
2023-04-19T11:09:01.520Z,114.63
2023-04-19T11:10:00.577Z,125.06
2023-04-19T11:11:00.562Z,125.35
2023-04-19T11:12:00.511Z,127.54
2023-04-19T11:13:01.531Z,131.10
2023-04-19T11:14:01.525Z,133.72
2023-04-19T11:15:01.635Z,132.30
2023-04-19T11:16:01.778Z,134.02
2023-04-19T11:17:01.839Z,139.99
2023-04-19T11:18:12.708Z,147.50
2023-04-19T11:19:01.733Z,147.64
2023-04-19T11:20:01.713Z,148.40
2023-04-19T11:21:00.686Z,148.81
2023-04-19T11:22:01.705Z,148.49
2023-04-19T11:23:01.674Z,154.28
2023-04-19T11:24:00.697Z,156.22
2023-04-19T11:25:01.696Z,153.58
2023-04-19T11:26:01.701Z,154.22
2023-04-19T11:27:00.648Z,154.76
2023-04-19T11:28:00.669Z,158.62
2023-04-19T11:29:00.631Z,161.57
2023-04-19T11:30:01.659Z,164.34
2023-04-19T11:31:00.692Z,165.50
2023-04-19T11:32:01.678Z,167.98
2023-04-19T11:33:01.670Z,171.55
2023-04-19T11:34:00.622Z,173.99
2023-04-19T11:35:01.660Z,178.75
2023-04-19T11:36:01.596Z,179.84
2023-04-19T11:37:00.583Z,184.87
2023-04-19T11:38:01.572Z,185.95
2023-04-19T11:39:01.609Z,183.24
2023-04-19T11:40:02.104Z,185.46
2023-04-19T11:41:01.674Z,191.91
2023-04-19T11:42:01.700Z,191.42
2023-04-19T11:43:01.551Z,185.53
2023-04-19T11:44:01.557Z,183.61
2023-04-19T11:45:00.509Z,180.41
2023-04-19T11:46:01.512Z,177.86
2023-04-19T11:47:01.534Z,175.65
2023-04-19T11:48:00.638Z,174.05
2023-04-19T11:49:00.500Z,167.68
2023-04-19T11:50:00.482Z,169.93
2023-04-19T11:51:01.615Z,165.38
2023-04-19T11:52:04.660Z,163.98
2023-04-19T11:53:01.470Z,164.29
2023-04-19T11:54:01.467Z,164.26
2023-04-19T11:55:01.426Z,163.20
2023-04-19T11:56:01.475Z,159.71
2023-04-19T11:57:00.424Z,156.77
2023-04-19T11:58:01.488Z,156.99
2023-04-19T11:59:01.440Z,154.89
2023-04-19T12:00:00.422Z,152.04
2023-04-19T12:01:01.400Z,150.68
2023-04-19T12:02:01.464Z,151.31
2023-04-19T12:03:01.562Z,146.80
2023-04-19T12:04:02.082Z,146.30
2023-04-19T12:05:01.750Z,144.62
2023-04-19T12:06:01.661Z,141.06
2023-04-19T12:07:00.548Z,139.21
2023-04-19T12:08:00.587Z,143.24
2023-04-19T12:09:00.637Z,138.79
2023-04-19T12:10:01.652Z,137.96
2023-04-19T12:11:01.704Z,138.75
2023-04-19T12:12:00.753Z,137.38
2023-04-19T12:13:00.800Z,135.16
2023-04-19T12:14:01.881Z,136.81
2023-04-19T12:15:00.894Z,135.17
2023-04-19T12:16:00.953Z,134.13
2023-04-19T12:17:01.073Z,134.52
2023-04-19T12:18:02.163Z,130.05
2023-04-19T12:19:01.115Z,130.84
2023-04-19T12:20:02.148Z,128.69
2023-04-19T12:21:02.190Z,130.24
2023-04-19T12:22:02.217Z,131.50
2023-04-19T12:23:02.261Z,128.77
2023-04-19T12:24:02.313Z,132.04
2023-04-19T12:25:01.326Z,131.75
2023-04-19T12:26:02.391Z,134.48
2023-04-19T12:27:03.341Z,132.88
2023-04-19T12:28:01.394Z,134.28
2023-04-19T12:29:02.394Z,133.31
2023-04-19T12:30:02.514Z,134.46
2023-04-19T12:31:02.365Z,129.54
2023-04-19T12:32:01.457Z,132.38
2023-04-19T12:33:01.396Z,129.56
2023-04-19T12:34:02.362Z,125.11
2023-04-19T12:35:01.337Z,125.32
2023-04-19T12:36:02.339Z,130.35
2023-04-19T12:37:01.335Z,127.61
2023-04-19T12:38:02.332Z,130.37
2023-04-19T12:39:01.299Z,127.18
2023-04-19T12:40:02.296Z,115.54
2023-04-19T12:41:01.279Z,80.42
2023-04-19T12:42:02.319Z,62.55
2023-04-19T12:43:02.334Z,50.60
2023-04-19T12:44:01.284Z,51.60
2023-04-19T12:45:02.269Z,53.20
2023-04-19T12:46:01.540Z,51.99
2023-04-19T12:47:01.252Z,58.89
2023-04-19T12:48:02.348Z,60.33
2023-04-19T12:49:01.250Z,63.39
2023-04-19T12:50:02.222Z,61.78
2023-04-19T12:51:01.225Z,67.29